createdAt,value
2022-08-18T00:03:04.420Z,22.50
2022-08-18T00:07:07.672Z,22.03
2022-08-18T00:11:08.878Z,24.03
2022-08-18T00:15:12.999Z,24.73
2022-08-18T00:19:14.218Z,22.67
2022-08-18T00:23:15.491Z,23.13
2022-08-18T00:27:21.825Z,23.20
2022-08-18T00:31:24.047Z,23.43
2022-08-18T00:35:29.419Z,22.03
2022-08-18T00:39:35.089Z,24.13
2022-08-18T00:43:45.251Z,24.10
2022-08-18T00:47:46.702Z,23.40
2022-08-18T00:51:50.210Z,27.50
2022-08-18T00:55:53.948Z,26.37
2022-08-18T01:00:04.262Z,23.87
2022-08-18T01:04:24.366Z,24.80
2022-08-18T01:08:29.258Z,23.80
2022-08-18T01:12:44.077Z,25.30
2022-08-18T01:16:55.325Z,25.10
2022-08-18T01:21:28.282Z,22.87
2022-08-18T01:25:50.179Z,21.73
2022-08-18T01:29:51.107Z,21.13
2022-08-18T01:33:52.094Z,22.30
2022-08-18T01:37:54.142Z,20.63
2022-08-18T01:41:55.282Z,21.13
2022-08-18T01:45:58.128Z,21.60
2022-08-18T01:50:00.156Z,21.90
2022-08-18T01:54:04.123Z,23.47
2022-08-18T01:58:07.402Z,22.70
2022-08-18T02:02:18.538Z,22.37
2022-08-18T02:06:18.646Z,21.13
2022-08-18T02:10:21.701Z,20.63
2022-08-18T02:14:44.540Z,21.63
2022-08-18T02:18:48.204Z,21.77
2022-08-18T02:22:49.629Z,22.33
2022-08-18T02:26:50.653Z,22.53
2022-08-18T02:30:51.734Z,21.93
2022-08-18T02:34:52.623Z,23.23
2022-08-18T02:38:56.641Z,22.03
2022-08-18T02:42:57.372Z,20.80
2022-08-18T02:46:58.879Z,20.40
2022-08-18T02:51:06.348Z,20.43
2022-08-18T02:55:08.518Z,18.73
2022-08-18T02:59:13.216Z,19.47
2022-08-18T03:03:14.393Z,20.57
2022-08-18T03:07:15.268Z,22.40
2022-08-18T03:11:18.294Z,22.17
2022-08-18T03:15:19.499Z,21.27
2022-08-18T03:19:28.791Z,21.33
2022-08-18T03:23:30.479Z,20.67
2022-08-18T03:27:31.471Z,20.87
2022-08-18T03:31:33.083Z,21.57
2022-08-18T03:35:36.368Z,20.50
2022-08-18T03:39:37.909Z,21.83
2022-08-18T03:43:51.130Z,23.70
2022-08-18T03:47:44.860Z,22.13
2022-08-18T03:51:46.371Z,24.60
2022-08-18T03:55:47.374Z,25.53
2022-08-18T03:59:49.046Z,23.47
2022-08-18T04:03:54.821Z,22.10
2022-08-18T04:07:56.717Z,20.83
2022-08-18T04:12:00.615Z,21.53
2022-08-18T04:16:01.816Z,23.27
2022-08-18T04:20:04.142Z,24.97
2022-08-18T04:24:06.961Z,25.83
2022-08-18T04:28:08.034Z,23.97
2022-08-18T04:32:09.348Z,24.47
2022-08-18T04:36:13.792Z,24.70
2022-08-18T04:40:20.213Z,20.90
2022-08-18T04:44:20.911Z,22.57
2022-08-18T04:48:22.750Z,21.33
2022-08-18T04:52:42.713Z,24.47
2022-08-18T04:56:43.831Z,24.63
2022-08-18T05:00:45.930Z,23.93
2022-08-18T05:04:47.297Z,20.57
2022-08-18T05:08:48.325Z,22.50
2022-08-18T05:12:49.456Z,22.50
2022-08-18T05:16:51.458Z,20.43
2022-08-18T05:20:54.851Z,21.23
2022-08-18T05:24:55.871Z,22.00
2022-08-18T05:29:04.432Z,21.07
2022-08-18T05:33:02.398Z,22.27
2022-08-18T05:37:25.667Z,22.80
2022-08-18T05:41:32.508Z,23.40
2022-08-18T05:45:34.515Z,25.97
2022-08-18T05:49:36.007Z,26.83
2022-08-18T05:53:42.656Z,22.23
2022-08-18T05:57:49.282Z,24.63
2022-08-18T06:01:57.187Z,21.77
2022-08-18T06:06:04.946Z,21.47
2022-08-18T06:10:08.444Z,21.50
2022-08-18T06:14:10.098Z,19.90
2022-08-18T06:18:32.749Z,21.63
2022-08-18T06:22:46.403Z,23.73
2022-08-18T06:27:09.777Z,22.23
2022-08-18T06:31:14.525Z,22.53
2022-08-18T06:35:37.754Z,20.37
2022-08-18T06:39:48.261Z,26.60
2022-08-18T06:43:58.112Z,24.10
2022-08-18T06:48:18.383Z,22.60
2022-08-18T06:52:35.413Z,23.43
2022-08-18T06:56:40.345Z,23.83
2022-08-18T07:00:54.985Z,24.70
2022-08-18T07:05:17.667Z,23.20
2022-08-18T07:09:25.099Z,24.23
2022-08-18T07:13:29.995Z,23.17
2022-08-18T07:17:42.443Z,22.23
2022-08-18T07:21:40.416Z,23.97
2022-08-18T07:25:44.611Z,22.90
2022-08-18T07:30:09.207Z,22.73
2022-08-18T07:34:25.480Z,21.07
2022-08-18T07:38:43.121Z,20.30
2022-08-18T07:43:00.543Z,21.23
2022-08-18T07:46:58.798Z,19.67
2022-08-18T07:51:20.447Z,21.03
2022-08-18T07:55:26.947Z,20.83
2022-08-18T07:59:52.885Z,20.53
2022-08-18T08:04:06.696Z,22.30
2022-08-18T08:08:14.596Z,25.67
2022-08-18T08:12:29.428Z,24.60
2022-08-18T08:16:43.803Z,23.43
2022-08-18T08:20:56.919Z,27.53
2022-08-18T08:25:22.641Z,24.17
2022-08-18T08:29:32.485Z,23.47
2022-08-18T08:33:37.458Z,24.53
2022-08-18T08:37:49.055Z,23.77
2022-08-18T08:42:31.629Z,25.37
2022-08-18T08:46:19.313Z,27.80
2022-08-18T08:50:26.204Z,28.63
2022-08-18T08:54:39.658Z,30.43
2022-08-18T08:58:44.742Z,30.53
2022-08-18T09:02:55.768Z,30.20
2022-08-18T09:07:20.479Z,32.97
2022-08-18T09:11:28.317Z,31.23
2022-08-18T09:15:42.200Z,29.97
2022-08-18T09:20:04.889Z,25.80
2022-08-18T09:24:10.384Z,29.90
2022-08-18T09:28:33.746Z,26.23
2022-08-18T09:32:44.561Z,27.53
2022-08-18T09:37:06.196Z,28.50
2022-08-18T09:41:31.443Z,28.07
2022-08-18T09:45:43.071Z,25.27
2022-08-18T09:49:53.166Z,26.53
2022-08-18T09:54:07.566Z,23.63
2022-08-18T09:58:28.778Z,23.63
2022-08-18T10:02:36.959Z,24.97
2022-08-18T10:06:38.545Z,23.67
2022-08-18T10:11:01.004Z,22.17
2022-08-18T10:15:03.913Z,23.90
2022-08-18T10:19:39.420Z,21.23
2022-08-18T10:23:58.158Z,23.60
2022-08-18T10:27:58.240Z,22.63
2022-08-18T10:32:04.689Z,22.77
2022-08-18T10:36:06.061Z,22.87
2022-08-18T10:40:21.191Z,24.17
2022-08-18T10:44:29.264Z,22.17
2022-08-18T10:48:29.403Z,21.20
2022-08-18T10:52:54.467Z,22.67
2022-08-18T10:56:59.467Z,20.60
2022-08-18T11:01:07.375Z,22.30
2022-08-18T11:05:12.096Z,24.20
2022-08-18T11:09:15.237Z,21.40
2022-08-18T11:13:42.169Z,20.93
2022-08-18T11:18:04.422Z,20.53
2022-08-18T11:22:06.584Z,22.63
2022-08-18T11:30:19.888Z,20.93
2022-08-18T11:34:29.831Z,19.03
2022-08-18T11:38:33.141Z,19.57
2022-08-18T11:42:38.103Z,19.80
2022-08-18T11:46:40.237Z,16.47
2022-08-18T11:50:54.726Z,18.50
2022-08-18T11:55:16.817Z,19.37
2022-08-18T11:59:52.459Z,18.90
2022-08-18T12:03:41.716Z,17.50
2022-08-18T12:07:57.253Z,16.53
2022-08-18T12:11:55.802Z,17.47
2022-08-18T12:16:18.685Z,17.73
2022-08-18T12:20:20.882Z,17.37
2022-08-18T12:24:26.313Z,16.80
2022-08-18T12:28:28.589Z,18.73
2022-08-18T12:32:46.768Z,17.10
2022-08-18T12:36:36.418Z,15.03
2022-08-18T12:40:40.256Z,14.73
2022-08-18T12:44:41.763Z,17.13
2022-08-18T12:48:45.040Z,15.70
2022-08-18T12:52:47.962Z,15.13
2022-08-18T12:56:53.411Z,15.27
2022-08-18T13:00:54.876Z,14.73
2022-08-18T13:04:56.083Z,14.83
2022-08-18T13:08:57.636Z,13.27
2022-08-18T13:12:59.255Z,14.63
2022-08-18T13:17:00.270Z,13.17
2022-08-18T13:21:07.160Z,13.53
2022-08-18T13:25:12.605Z,14.43
2022-08-18T13:29:17.593Z,13.23
2022-08-18T13:33:34.522Z,14.43
2022-08-18T13:37:24.225Z,13.53
2022-08-18T13:45:27.749Z,13.60
2022-08-18T13:49:30.701Z,11.90
2022-08-18T13:53:32.377Z,11.57
2022-08-18T13:57:53.845Z,11.47
2022-08-18T14:01:55.031Z,12.47
2022-08-18T14:06:01.514Z,12.40
2022-08-18T14:10:07.282Z,12.40
2022-08-18T14:14:12.311Z,11.57
2022-08-18T14:18:16.376Z,11.10
2022-08-18T14:22:36.104Z,12.17
2022-08-18T14:26:50.271Z,12.20
2022-08-18T14:30:54.400Z,10.53
2022-08-18T14:35:00.833Z,11.30
2022-08-18T14:39:03.586Z,11.67
2022-08-18T14:43:06.513Z,12.93
2022-08-18T14:47:07.743Z,12.57
2022-08-18T14:51:09.707Z,12.80
2022-08-18T14:55:11.910Z,13.20
2022-08-18T14:59:13.037Z,12.43
2022-08-18T15:03:14.805Z,13.37
2022-08-18T15:07:17.503Z,12.37
2022-08-18T15:11:19.191Z,12.30
2022-08-18T15:15:22.618Z,12.93
2022-08-18T15:19:57.623Z,15.53
2022-08-18T15:23:46.376Z,14.80
2022-08-18T15:27:47.504Z,14.40
2022-08-18T15:31:51.250Z,14.33
2022-08-18T15:35:55.233Z,16.07
2022-08-18T15:40:21.963Z,14.57
2022-08-18T15:44:21.485Z,15.00
2022-08-18T15:48:23.672Z,16.97
2022-08-18T15:52:25.942Z,15.23
2022-08-18T15:56:28.042Z,14.80
2022-08-18T16:00:31.203Z,15.33
2022-08-18T16:04:32.304Z,18.27
2022-08-18T16:08:33.814Z,20.03
2022-08-18T16:12:34.944Z,16.17
2022-08-18T16:16:36.687Z,17.27
2022-08-18T16:20:38.425Z,16.83
2022-08-18T16:24:39.810Z,16.63
2022-08-18T16:28:42.541Z,16.80
2022-08-18T16:32:44.332Z,17.23
2022-08-18T16:36:45.450Z,17.93
2022-08-18T16:40:46.940Z,21.70
2022-08-18T16:44:48.450Z,25.03
2022-08-18T16:48:50.981Z,24.10
2022-08-18T16:52:52.296Z,25.83
2022-08-18T16:56:53.809Z,24.23
2022-08-18T17:01:18.713Z,25.37
2022-08-18T17:05:17.601Z,25.60
2022-08-18T17:09:19.437Z,24.90
2022-08-18T17:13:20.688Z,25.17
2022-08-18T17:17:22.202Z,23.07
2022-08-18T17:21:26.671Z,22.70
2022-08-18T17:25:28.130Z,20.30
2022-08-18T17:29:51.422Z,19.67
2022-08-18T17:33:56.610Z,24.40
2022-08-18T17:38:11.165Z,19.03
2022-08-18T17:42:28.673Z,18.27
2022-08-18T17:46:33.610Z,18.77
2022-08-18T17:51:15.820Z,35.13
2022-08-18T17:55:26.525Z,56.10
2022-08-18T17:59:45.354Z,48.87
2022-08-18T18:03:43.483Z,56.57
2022-08-18T18:07:51.682Z,68.23
2022-08-18T18:11:53.862Z,55.20
2022-08-18T18:16:01.137Z,104.10
2022-08-18T18:20:39.107Z,121.57
2022-08-18T18:24:43.936Z,108.13
2022-08-18T18:28:45.824Z,159.03
2022-08-18T18:32:59.924Z,136.97
2022-08-18T18:37:02.081Z,92.20
2022-08-18T18:41:09.821Z,95.37
2022-08-18T18:45:30.423Z,215.17
2022-08-18T18:49:44.446Z,124.43
2022-08-18T18:53:55.094Z,119.27
2022-08-18T18:58:20.231Z,221.50
2022-08-18T19:02:55.096Z,179.13
2022-08-18T19:07:12.114Z,128.60
2022-08-18T19:11:45.623Z,97.83
2022-08-18T19:15:47.541Z,89.50
2022-08-18T19:20:01.543Z,90.97
2022-08-18T19:24:06.594Z,176.50
2022-08-18T19:28:28.501Z,137.07
2022-08-18T19:32:36.487Z,80.47
2022-08-18T19:36:47.324Z,56.33
2022-08-18T19:41:04.796Z,65.67
2022-08-18T19:45:20.189Z,101.13
2022-08-18T19:49:34.289Z,53.53
2022-08-18T19:53:57.333Z,47.80
2022-08-18T19:58:20.459Z,35.27
2022-08-18T20:02:34.715Z,37.33
2022-08-18T20:07:00.826Z,67.10
2022-08-18T20:11:10.333Z,42.57
2022-08-18T20:15:18.463Z,37.83
2022-08-18T20:19:49.804Z,36.70
2022-08-18T20:24:07.981Z,34.33
2022-08-18T20:28:12.833Z,31.25
2022-08-18T20:32:20.687Z,32.10
2022-08-18T20:36:31.468Z,28.03
2022-08-18T20:40:39.044Z,28.83
2022-08-18T20:44:58.164Z,30.50
2022-08-18T20:49:05.882Z,32.60
2022-08-18T20:53:32.865Z,34.03
2022-08-18T20:57:36.735Z,38.73
2022-08-18T21:01:38.771Z,43.73
2022-08-18T21:05:43.069Z,42.10
2022-08-18T21:10:02.088Z,36.40
2022-08-18T21:14:05.027Z,34.43
2022-08-18T21:18:19.025Z,33.73
2022-08-18T21:22:20.222Z,37.73
2022-08-18T21:26:22.011Z,38.13
2022-08-18T21:30:26.030Z,42.23
2022-08-18T21:34:33.708Z,38.87
2022-08-18T21:38:35.842Z,36.33
2022-08-18T21:42:43.332Z,32.60
2022-08-18T21:46:45.745Z,31.90
2022-08-18T21:50:52.754Z,33.67
2022-08-18T21:54:57.567Z,32.53
2022-08-18T21:59:17.301Z,30.33
2022-08-18T22:03:24.446Z,32.67
2022-08-18T22:07:34.932Z,28.97
2022-08-18T22:12:00.735Z,30.47
2022-08-18T22:15:55.418Z,30.43
2022-08-18T22:20:00.345Z,29.80
2022-08-18T22:24:19.614Z,29.87
2022-08-18T22:28:23.595Z,30.23
2022-08-18T22:32:26.811Z,30.10
2022-08-18T22:36:31.040Z,30.07
2022-08-18T22:40:32.044Z,31.07
2022-08-18T22:44:33.645Z,28.93
2022-08-18T22:48:34.603Z,28.90
2022-08-18T22:52:39.929Z,29.17
2022-08-18T22:56:53.938Z,30.27
2022-08-18T23:00:46.460Z,30.93
2022-08-18T23:04:47.458Z,31.13
2022-08-18T23:08:55.365Z,31.60
2022-08-18T23:12:51.667Z,29.83
2022-08-18T23:16:53.186Z,32.83
2022-08-18T23:20:59.146Z,29.93
2022-08-18T23:25:00.842Z,30.97
2022-08-18T23:29:05.564Z,31.67
2022-08-18T23:33:09.280Z,31.93
2022-08-18T23:37:10.563Z,33.00
2022-08-18T23:41:13.811Z,32.07
2022-08-18T23:45:14.926Z,31.50
2022-08-18T23:49:16.028Z,32.97
2022-08-18T23:53:18.361Z,34.00
2022-08-18T23:57:19.357Z,29.07
